Terminal Aerodrome Forecast
Issued by NWS Omaha/Valley, NE

Home | Current Version | Previous Version | Text Only | Print | Product List | Glossary On
Versions: 1 2 3 4 5 6 7 8 9 10 11 12 13 14 15 16 17 18 19 20 21 22 23 24 25 26 27 28 29 30 31 32 33 34 35 36 37 38 39 40 41 42 43 44 45 46 47 48 49 50
000
FTUS43 KOAX 061725
TAFLNK
TAF
KLNK 061725Z 0618/0718 17018G28KT P6SM SCT015 OVC025
      TEMPO 0618/0620 OVC015
     FM062100 17018G28KT P6SM OVC040
     FM070100 16018G26KT 6SM -SHRA BR OVC040
      TEMPO 0702/0706 2SM TSRA BR OVC025CB
     FM070800 18015G22KT 5SM BR OVC030 PROB30 0708/0712 2SM TSRA
      OVC025CB
     FM071400 21013KT P6SM OVC040=

USA.gov is the U.S. government's official web portal to all federal, state and local government web resources and services.